ADDS METAR Data INFO
IDs: Format: Raw Decoded Include TAF

Data at: 0215 UTC 18 Jan 2018

KALN 180145Z 24007KT 10SM SKC M08/M12 A3053
KALN 180048Z 24006KT 10SM SKC M07/M12 A3055
KALN 172355Z 25007KT 10SM SKC M08/M12 A3055
KALN 172250Z 24007KT 10SM SKC M06/M12 A3056
KALN 172150Z 23007KT 10SM SKC M05/M12 A3058
KALN 172050Z 24005KT 10SM SKC M05/M12 A3059
KALN 171950Z 24005KT 10SM SKC M06/M12 A3061
KALN 171850Z 26007KT 10SM SKC M08/M12 A3063
KALN 171750Z 25008KT 10SM SKC M09/M13 A3067
KALN 171648Z 25008KT 10SM SKC M11/M14 A3070
KALN 171545Z 27005KT 10SM SKC M13/M15 A3071
KALN 171445Z 27005KT 10SM SKC M14/M16 A3070
KALN 171346Z COR 27004KT 10SM SKC M17/M19 A3068
KALN 171245Z 27004KT 10SM SKC M18/M19 A3067
KALN 171235Z AUTO 27005KT 10SM CLR M17/M18 A3067 RMK AO2 T11721185
KALN 171215Z AUTO 26004KT 10SM CLR M18/M19 A3068 RMK AO2 T11761189
KALN 171155Z AUTO 27005KT 10SM CLR M17/M19 A3068 RMK AO2 T11751188 11137 21178
KALN 171135Z AUTO 27005KT 10SM CLR M17/M19 A3068 RMK AO2 T11751186
KALN 171115Z AUTO 27004KT 10SM CLR M17/M19 A3068 RMK AO2 T11751186
KALN 171055Z AUTO 28005KT 10SM CLR M18/M19 A3068 RMK AO2 T11761187
KALN 171035Z AUTO 27005KT 10SM CLR M17/M19 A3068 RMK AO2 T11741186
KALN 171015Z AUTO 27005KT 10SM CLR M17/M18 A3068 RMK AO2 T11701183
KALN 170955Z AUTO 27005KT 10SM CLR M17/M19 A3068 RMK AO2 T11751186
KALN 170935Z AUTO 27005KT 10SM CLR M17/M18 A3068 RMK AO2 T11681180
KALN 170915Z AUTO 27005KT 10SM CLR M17/M18 A3068 RMK AO2 T11721185
KALN 170855Z AUTO 27005KT 10SM CLR M17/M18 A3068 RMK AO2 T11681182
KALN 170835Z AUTO 27004KT 10SM CLR M16/M18 A3068 RMK AO2 T11611179
KALN 170815Z AUTO 27005KT 10SM CLR M15/M17 A3068 RMK AO2 T11501169
KALN 170755Z AUTO 27007KT 10SM CLR M15/M17 A3068 RMK AO2 T11461166
KALN 170735Z AUTO 27009KT 10SM CLR M14/M16 A3068 RMK AO2 T11431163
KALN 170715Z AUTO 26007KT 10SM CLR M14/M16 A3068 RMK AO2 T11431162
KALN 170655Z AUTO 26007KT 10SM CLR M14/M16 A3067 RMK AO2 T11431160
KALN 170635Z AUTO 26006KT 10SM CLR M15/M16 A3067 RMK AO2 T11471165
KALN 170615Z AUTO 27006KT 10SM SCT022 SCT027 M14/M16 A3068 RMK AO2 T11431162
KALN 170555Z AUTO 27005KT 10SM BKN022 BKN027 M14/M15 A3069 RMK AO2 T11361155 11127 21150 411201185
KALN 170535Z AUTO 27006KT 10SM SCT022 M14/M16 A3069 RMK AO2 T11441161
KALN 170515Z AUTO 27005KT 10SM OVC022 M14/M16 A3069 RMK AO2 T11371157
KALN 170455Z AUTO 28006KT 10SM OVC022 M13/M15 A3069 RMK AO2 T11301155
KALN 170435Z AUTO 28008KT 10SM OVC022 M13/M15 A3069 RMK AO2 T11291154
KALN 170415Z AUTO 28007KT 10SM OVC022 M13/M15 A3069 RMK AO2 T11271154
KALN 170350Z 28008KT 10SM SCT020 M13/M15 A3069
KALN 170250Z 28006KT 10SM SKC M13/M15 A3070
KALN 170150Z 29006KT 10SM SKC M14/M16 A3070
KALN 170050Z 28006KT 10SM SKC M14/M16 A3069
KALN 162350Z 29006KT 10SM SKC M14/M17 A3068
KALN 162245Z 28010KT 10SM SCT025 SCT050 M13/M17 A3065
KALN 162145Z 29010KT 10SM OVC022 M13/M17 A3066
KALN 162045Z 29010KT 10SM SCT039 OVC047 M13/M17 A3065
KALN 161945Z 29012KT 10SM SCT043 M13/M17 A3064
KALN 161849Z 29010KT 10SM SCT036 M13/M17 A3064
KALN 161748Z 29010KT 10SM FEW120 M14/M19 A3066
KALN 161645Z 28010KT 10SM FEW044 M15/M19 A3067
KALN 161550Z 28010KT 6SM HZ BKN044 M17/M20 A3068
KALN 161450Z 29012KT 5SM -SN OVC036 M17/M21 A3067